sensor_id;sensor_type;location;lat;lon;timestamp;P1;durP1;ratioP1;P2;durP2;ratioP2
14342;SDS011;7255;53.596;9.960;2023-05-10T00:02:07;2.47;;;2.28;;
14342;SDS011;7255;53.596;9.960;2023-05-10T00:04:33;3.58;;;2.50;;
14342;SDS011;7255;53.596;9.960;2023-05-10T00:06:59;2.95;;;2.42;;
14342;SDS011;7255;53.596;9.960;2023-05-10T00:09:27;3.87;;;2.33;;
14342;SDS011;7255;53.596;9.960;2023-05-10T00:11:54;2.53;;;2.30;;
14342;SDS011;7255;53.596;9.960;2023-05-10T00:14:20;3.40;;;2.33;;
14342;SDS011;7255;53.596;9.960;2023-05-10T00:16:46;2.83;;;2.58;;
14342;SDS011;7255;53.596;9.960;2023-05-10T00:19:12;2.90;;;2.60;;
14342;SDS011;7255;53.596;9.960;2023-05-10T00:21:39;3.58;;;2.72;;
14342;SDS011;7255;53.596;9.960;2023-05-10T00:24:05;3.08;;;2.58;;
14342;SDS011;7255;53.596;9.960;2023-05-10T00:26:33;3.30;;;2.45;;
14342;SDS011;7255;53.596;9.960;2023-05-10T00:28:59;4.43;;;2.72;;
14342;SDS011;7255;53.596;9.960;2023-05-10T00:31:26;4.20;;;2.40;;
14342;SDS011;7255;53.596;9.960;2023-05-10T00:33:52;3.55;;;2.95;;
14342;SDS011;7255;53.596;9.960;2023-05-10T00:36:18;3.33;;;2.70;;
14342;SDS011;7255;53.596;9.960;2023-05-10T00:38:45;3.08;;;2.60;;
14342;SDS011;7255;53.596;9.960;2023-05-10T00:41:12;3.45;;;2.30;;
14342;SDS011;7255;53.596;9.960;2023-05-10T00:43:39;3.20;;;2.83;;
14342;SDS011;7255;53.596;9.960;2023-05-10T00:46:06;3.30;;;2.97;;
14342;SDS011;7255;53.596;9.960;2023-05-10T00:48:32;3.78;;;2.80;;
14342;SDS011;7255;53.596;9.960;2023-05-10T00:50:59;3.30;;;3.00;;
14342;SDS011;7255;53.596;9.960;2023-05-10T00:53:27;3.92;;;2.70;;
14342;SDS011;7255;53.596;9.960;2023-05-10T00:55:53;3.33;;;2.87;;
14342;SDS011;7255;53.596;9.960;2023-05-10T00:58:20;4.82;;;2.90;;
14342;SDS011;7255;53.596;9.960;2023-05-10T01:00:49;3.12;;;2.80;;
14342;SDS011;7255;53.596;9.960;2023-05-10T01:03:17;3.12;;;2.65;;
14342;SDS011;7255;53.596;9.960;2023-05-10T01:05:43;3.95;;;2.80;;
14342;SDS011;7255;53.596;9.960;2023-05-10T01:08:10;2.95;;;2.67;;
14342;SDS011;7255;53.596;9.960;2023-05-10T01:10:36;3.50;;;2.70;;
14342;SDS011;7255;53.596;9.960;2023-05-10T01:13:02;3.60;;;2.92;;
14342;SDS011;7255;53.596;9.960;2023-05-10T01:15:29;3.00;;;2.70;;
14342;SDS011;7255;53.596;9.960;2023-05-10T01:17:57;4.25;;;2.90;;
14342;SDS011;7255;53.596;9.960;2023-05-10T01:20:24;3.20;;;2.70;;
14342;SDS011;7255;53.596;9.960;2023-05-10T01:23:10;3.20;;;2.37;;
14342;SDS011;7255;53.596;9.960;2023-05-10T01:26:05;3.87;;;3.00;;
14342;SDS011;7255;53.596;9.960;2023-05-10T01:28:48;3.25;;;2.67;;
14342;SDS011;7255;53.596;9.960;2023-05-10T01:34:34;2.92;;;2.58;;
14342;SDS011;7255;53.596;9.960;2023-05-10T01:37:04;3.58;;;2.85;;
14342;SDS011;7255;53.596;9.960;2023-05-10T01:39:36;2.73;;;2.53;;
14342;SDS011;7255;53.596;9.960;2023-05-10T01:42:10;4.37;;;3.00;;
14342;SDS011;7255;53.596;9.960;2023-05-10T01:44:42;2.92;;;2.62;;
14342;SDS011;7255;53.596;9.960;2023-05-10T01:47:14;3.05;;;2.72;;
14342;SDS011;7255;53.596;9.960;2023-05-10T01:49:43;2.97;;;2.70;;
14342;SDS011;7255;53.596;9.960;2023-05-10T01:52:15;3.40;;;2.70;;
14342;SDS011;7255;53.596;9.960;2023-05-10T01:54:44;4.07;;;2.90;;
14342;SDS011;7255;53.596;9.960;2023-05-10T01:57:16;3.60;;;2.97;;
14342;SDS011;7255;53.596;9.960;2023-05-10T01:59:46;3.05;;;2.67;;
14342;SDS011;7255;53.596;9.960;2023-05-10T02:02:17;2.75;;;2.53;;
14342;SDS011;7255;53.596;9.960;2023-05-10T02:04:46;3.95;;;3.10;;
14342;SDS011;7255;53.596;9.960;2023-05-10T02:07:15;3.15;;;2.85;;
14342;SDS011;7255;53.596;9.960;2023-05-10T02:09:42;3.03;;;2.72;;
14342;SDS011;7255;53.596;9.960;2023-05-10T02:12:12;5.35;;;3.20;;
14342;SDS011;7255;53.596;9.960;2023-05-10T02:14:40;5.15;;;2.92;;
14342;SDS011;7255;53.596;9.960;2023-05-10T02:17:08;3.40;;;2.80;;
14342;SDS011;7255;53.596;9.960;2023-05-10T02:19:38;3.90;;;2.90;;
14342;SDS011;7255;53.596;9.960;2023-05-10T02:22:06;2.87;;;2.62;;
14342;SDS011;7255;53.596;9.960;2023-05-10T02:24:35;3.08;;;2.78;;
14342;SDS011;7255;53.596;9.960;2023-05-10T02:27:03;3.60;;;2.83;;
14342;SDS011;7255;53.596;9.960;2023-05-10T02:29:31;4.82;;;3.00;;
14342;SDS011;7255;53.596;9.960;2023-05-10T02:31:58;3.05;;;2.70;;
14342;SDS011;7255;53.596;9.960;2023-05-10T02:34:26;3.37;;;2.80;;
14342;SDS011;7255;53.596;9.960;2023-05-10T02:36:55;4.80;;;2.80;;
14342;SDS011;7255;53.596;9.960;2023-05-10T02:39:22;3.97;;;2.85;;
14342;SDS011;7255;53.596;9.960;2023-05-10T02:41:50;3.53;;;3.22;;
14342;SDS011;7255;53.596;9.960;2023-05-10T02:44:18;3.72;;;2.80;;
14342;SDS011;7255;53.596;9.960;2023-05-10T02:46:46;4.65;;;3.50;;
14342;SDS011;7255;53.596;9.960;2023-05-10T02:49:13;4.18;;;3.00;;
14342;SDS011;7255;53.596;9.960;2023-05-10T02:51:40;4.72;;;2.87;;
14342;SDS011;7255;53.596;9.960;2023-05-10T02:54:11;3.58;;;2.85;;
14342;SDS011;7255;53.596;9.960;2023-05-10T02:56:43;2.92;;;2.62;;
14342;SDS011;7255;53.596;9.960;2023-05-10T02:59:13;4.15;;;3.25;;
14342;SDS011;7255;53.596;9.960;2023-05-10T03:01:40;3.53;;;3.10;;
14342;SDS011;7255;53.596;9.960;2023-05-10T03:04:07;3.33;;;2.97;;
14342;SDS011;7255;53.596;9.960;2023-05-10T03:06:33;3.30;;;3.00;;
14342;SDS011;7255;53.596;9.960;2023-05-10T03:09:00;3.97;;;3.20;;
14342;SDS011;7255;53.596;9.960;2023-05-10T03:11:32;3.85;;;2.62;;
14342;SDS011;7255;53.596;9.960;2023-05-10T03:14:08;3.40;;;2.77;;
14342;SDS011;7255;53.596;9.960;2023-05-10T03:16:41;4.07;;;3.37;;
14342;SDS011;7255;53.596;9.960;2023-05-10T03:19:12;4.40;;;3.10;;
14342;SDS011;7255;53.596;9.960;2023-05-10T03:21:44;3.85;;;2.95;;
14342;SDS011;7255;53.596;9.960;2023-05-10T03:24:15;3.60;;;2.92;;
14342;SDS011;7255;53.596;9.960;2023-05-10T03:26:44;3.35;;;3.00;;
14342;SDS011;7255;53.596;9.960;2023-05-10T03:29:14;3.20;;;2.90;;
14342;SDS011;7255;53.596;9.960;2023-05-10T03:31:41;5.18;;;3.00;;
14342;SDS011;7255;53.596;9.960;2023-05-10T03:34:08;3.30;;;2.60;;
14342;SDS011;7255;53.596;9.960;2023-05-10T03:36:34;3.05;;;2.70;;
14342;SDS011;7255;53.596;9.960;2023-05-10T03:39:01;4.03;;;3.00;;
14342;SDS011;7255;53.596;9.960;2023-05-10T03:41:27;3.47;;;3.00;;
14342;SDS011;7255;53.596;9.960;2023-05-10T03:43:55;3.58;;;2.87;;
14342;SDS011;7255;53.596;9.960;2023-05-10T03:46:21;3.25;;;2.95;;
14342;SDS011;7255;53.596;9.960;2023-05-10T03:48:47;3.17;;;2.90;;
14342;SDS011;7255;53.596;9.960;2023-05-10T03:51:14;3.42;;;3.12;;
14342;SDS011;7255;53.596;9.960;2023-05-10T03:53:40;3.90;;;2.87;;
14342;SDS011;7255;53.596;9.960;2023-05-10T03:56:06;4.43;;;3.40;;
14342;SDS011;7255;53.596;9.960;2023-05-10T03:58:32;3.65;;;3.15;;
14342;SDS011;7255;53.596;9.960;2023-05-10T04:01:00;4.45;;;2.97;;
14342;SDS011;7255;53.596;9.960;2023-05-10T04:03:27;3.37;;;3.08;;
14342;SDS011;7255;53.596;9.960;2023-05-10T04:05:58;3.15;;;2.85;;
14342;SDS011;7255;53.596;9.960;2023-05-10T04:08:26;3.60;;;2.90;;
14342;SDS011;7255;53.596;9.960;2023-05-10T04:10:52;3.53;;;3.07;;
14342;SDS011;7255;53.596;9.960;2023-05-10T04:13:18;3.37;;;3.00;;
14342;SDS011;7255;53.596;9.960;2023-05-10T04:15:45;3.42;;;3.03;;
14342;SDS011;7255;53.596;9.960;2023-05-10T04:18:12;3.58;;;3.03;;
14342;SDS011;7255;53.596;9.960;2023-05-10T04:20:38;5.68;;;2.87;;
14342;SDS011;7255;53.596;9.960;2023-05-10T04:23:05;3.15;;;2.70;;
14342;SDS011;7255;53.596;9.960;2023-05-10T04:25:33;3.57;;;3.23;;
14342;SDS011;7255;53.596;9.960;2023-05-10T04:28:00;3.35;;;3.05;;
14342;SDS011;7255;53.596;9.960;2023-05-10T04:30:26;4.07;;;3.10;;
14342;SDS011;7255;53.596;9.960;2023-05-10T04:32:54;4.20;;;3.10;;
14342;SDS011;7255;53.596;9.960;2023-05-10T04:35:21;5.03;;;3.27;;
14342;SDS011;7255;53.596;9.960;2023-05-10T04:37:48;3.42;;;2.70;;
14342;SDS011;7255;53.596;9.960;2023-05-10T04:40:14;3.58;;;3.15;;
14342;SDS011;7255;53.596;9.960;2023-05-10T04:42:40;3.90;;;3.03;;
14342;SDS011;7255;53.596;9.960;2023-05-10T04:45:07;3.62;;;3.20;;
14342;SDS011;7255;53.596;9.960;2023-05-10T04:47:35;3.28;;;2.97;;
14342;SDS011;7255;53.596;9.960;2023-05-10T04:50:02;4.03;;;3.62;;
14342;SDS011;7255;53.596;9.960;2023-05-10T04:52:29;3.25;;;2.95;;
14342;SDS011;7255;53.596;9.960;2023-05-10T04:54:56;3.87;;;3.05;;
14342;SDS011;7255;53.596;9.960;2023-05-10T04:57:22;3.65;;;3.10;;
14342;SDS011;7255;53.596;9.960;2023-05-10T04:59:49;4.10;;;3.05;;
14342;SDS011;7255;53.596;9.960;2023-05-10T05:02:15;3.33;;;2.95;;
14342;SDS011;7255;53.596;9.960;2023-05-10T05:04:41;3.80;;;3.00;;
14342;SDS011;7255;53.596;9.960;2023-05-10T05:07:07;3.35;;;2.90;;
14342;SDS011;7255;53.596;9.960;2023-05-10T05:09:35;3.58;;;3.10;;
14342;SDS011;7255;53.596;9.960;2023-05-10T05:12:02;4.47;;;3.30;;
14342;SDS011;7255;53.596;9.960;2023-05-10T05:14:28;3.55;;;3.00;;
14342;SDS011;7255;53.596;9.960;2023-05-10T05:16:54;3.58;;;3.20;;
14342;SDS011;7255;53.596;9.960;2023-05-10T05:19:21;3.50;;;3.20;;
14342;SDS011;7255;53.596;9.960;2023-05-10T05:21:48;3.25;;;2.95;;
14342;SDS011;7255;53.596;9.960;2023-05-10T05:24:14;3.47;;;3.17;;
14342;SDS011;7255;53.596;9.960;2023-05-10T05:26:42;3.65;;;3.00;;
14342;SDS011;7255;53.596;9.960;2023-05-10T05:29:08;3.83;;;3.30;;
14342;SDS011;7255;53.596;9.960;2023-05-10T05:31:34;3.45;;;3.15;;
14342;SDS011;7255;53.596;9.960;2023-05-10T05:34:01;3.58;;;2.67;;
14342;SDS011;7255;53.596;9.960;2023-05-10T05:36:27;4.70;;;2.97;;
14342;SDS011;7255;53.596;9.960;2023-05-10T05:38:54;3.47;;;3.10;;
14342;SDS011;7255;53.596;9.960;2023-05-10T05:41:20;3.28;;;2.83;;
14342;SDS011;7255;53.596;9.960;2023-05-10T05:43:48;3.92;;;3.12;;
14342;SDS011;7255;53.596;9.960;2023-05-10T05:46:14;3.87;;;3.10;;
14342;SDS011;7255;53.596;9.960;2023-05-10T05:48:41;4.97;;;3.30;;
14342;SDS011;7255;53.596;9.960;2023-05-10T05:51:07;3.57;;;2.93;;
14342;SDS011;7255;53.596;9.960;2023-05-10T05:53:33;3.70;;;2.97;;
14342;SDS011;7255;53.596;9.960;2023-05-10T05:56:00;3.17;;;2.90;;
14342;SDS011;7255;53.596;9.960;2023-05-10T05:58:26;3.20;;;2.87;;
14342;SDS011;7255;53.596;9.960;2023-05-10T06:00:54;4.15;;;3.35;;
14342;SDS011;7255;53.596;9.960;2023-05-10T06:03:20;4.70;;;3.05;;
14342;SDS011;7255;53.596;9.960;2023-05-10T06:05:46;4.47;;;2.80;;
14342;SDS011;7255;53.596;9.960;2023-05-10T06:08:13;4.47;;;3.10;;
14342;SDS011;7255;53.596;9.960;2023-05-10T06:10:39;3.78;;;2.97;;
14342;SDS011;7255;53.596;9.960;2023-05-10T06:13:05;3.55;;;3.17;;
14342;SDS011;7255;53.596;9.960;2023-05-10T06:15:32;4.03;;;3.15;;
14342;SDS011;7255;53.596;9.960;2023-05-10T06:17:59;3.78;;;3.10;;
14342;SDS011;7255;53.596;9.960;2023-05-10T06:20:26;3.55;;;3.20;;
14342;SDS011;7255;53.596;9.960;2023-05-10T06:22:52;3.15;;;2.83;;
14342;SDS011;7255;53.596;9.960;2023-05-10T06:25:19;3.22;;;2.90;;
14342;SDS011;7255;53.596;9.960;2023-05-10T06:27:45;3.15;;;2.55;;
14342;SDS011;7255;53.596;9.960;2023-05-10T06:30:12;3.50;;;2.90;;
14342;SDS011;7255;53.596;9.960;2023-05-10T06:32:40;3.78;;;2.83;;
14342;SDS011;7255;53.596;9.960;2023-05-10T06:35:10;3.10;;;2.80;;
14342;SDS011;7255;53.596;9.960;2023-05-10T06:37:36;3.80;;;3.20;;
14342;SDS011;7255;53.596;9.960;2023-05-10T06:40:03;3.67;;;2.75;;
14342;SDS011;7255;53.596;9.960;2023-05-10T06:42:30;5.43;;;3.30;;
14342;SDS011;7255;53.596;9.960;2023-05-10T06:44:56;3.40;;;2.85;;
14342;SDS011;7255;53.596;9.960;2023-05-10T06:47:22;3.65;;;3.00;;
14342;SDS011;7255;53.596;9.960;2023-05-10T06:49:49;3.60;;;3.20;;
14342;SDS011;7255;53.596;9.960;2023-05-10T06:52:16;3.33;;;3.00;;
14342;SDS011;7255;53.596;9.960;2023-05-10T06:54:43;3.58;;;2.65;;
14342;SDS011;7255;53.596;9.960;2023-05-10T06:57:09;3.30;;;3.00;;
14342;SDS011;7255;53.596;9.960;2023-05-10T06:59:35;3.25;;;2.95;;
14342;SDS011;7255;53.596;9.960;2023-05-10T07:02:02;3.70;;;3.10;;
14342;SDS011;7255;53.596;9.960;2023-05-10T07:04:28;3.35;;;3.05;;
14342;SDS011;7255;53.596;9.960;2023-05-10T07:06:54;3.40;;;2.90;;
14342;SDS011;7255;53.596;9.960;2023-05-10T07:09:22;3.80;;;3.00;;
14342;SDS011;7255;53.596;9.960;2023-05-10T07:11:49;5.03;;;3.40;;
14342;SDS011;7255;53.596;9.960;2023-05-10T07:14:15;3.50;;;3.00;;
14342;SDS011;7255;53.596;9.960;2023-05-10T07:16:42;3.37;;;3.08;;
14342;SDS011;7255;53.596;9.960;2023-05-10T07:19:09;4.22;;;3.20;;
14342;SDS011;7255;53.596;9.960;2023-05-10T07:21:35;3.60;;;3.22;;
14342;SDS011;7255;53.596;9.960;2023-05-10T07:24:02;3.55;;;3.25;;
14342;SDS011;7255;53.596;9.960;2023-05-10T07:26:30;3.85;;;3.33;;
14342;SDS011;7255;53.596;9.960;2023-05-10T07:28:56;3.40;;;3.05;;
14342;SDS011;7255;53.596;9.960;2023-05-10T07:31:22;4.60;;;3.23;;
14342;SDS011;7255;53.596;9.960;2023-05-10T07:33:49;3.60;;;3.00;;
14342;SDS011;7255;53.596;9.960;2023-05-10T07:36:15;4.93;;;3.28;;
14342;SDS011;7255;53.596;9.960;2023-05-10T07:38:41;3.80;;;3.15;;
14342;SDS011;7255;53.596;9.960;2023-05-10T07:41:08;4.00;;;3.12;;
14342;SDS011;7255;53.596;9.960;2023-05-10T07:43:35;3.12;;;2.83;;
14342;SDS011;7255;53.596;9.960;2023-05-10T07:46:01;3.95;;;3.08;;
14342;SDS011;7255;53.596;9.960;2023-05-10T07:48:28;4.07;;;3.50;;
14342;SDS011;7255;53.596;9.960;2023-05-10T07:50:54;3.97;;;3.20;;
14342;SDS011;7255;53.596;9.960;2023-05-10T07:53:21;4.03;;;2.80;;
14342;SDS011;7255;53.596;9.960;2023-05-10T07:55:49;3.23;;;2.90;;
14342;SDS011;7255;53.596;9.960;2023-05-10T07:58:16;3.70;;;3.08;;
14342;SDS011;7255;53.596;9.960;2023-05-10T08:00:44;3.62;;;3.20;;
14342;SDS011;7255;53.596;9.960;2023-05-10T08:03:10;4.82;;;3.20;;
14342;SDS011;7255;53.596;9.960;2023-05-10T08:05:37;3.42;;;3.05;;
14342;SDS011;7255;53.596;9.960;2023-05-10T08:08:03;3.83;;;3.03;;
14342;SDS011;7255;53.596;9.960;2023-05-10T08:10:30;3.87;;;3.20;;
14342;SDS011;7255;53.596;9.960;2023-05-10T08:12:56;4.78;;;3.45;;
14342;SDS011;7255;53.596;9.960;2023-05-10T08:15:23;4.90;;;3.03;;
14342;SDS011;7255;53.596;9.960;2023-05-10T08:17:51;7.05;;;3.20;;
14342;SDS011;7255;53.596;9.960;2023-05-10T08:20:17;3.23;;;2.90;;
14342;SDS011;7255;53.596;9.960;2023-05-10T08:22:44;3.53;;;2.83;;
14342;SDS011;7255;53.596;9.960;2023-05-10T08:25:10;3.78;;;2.95;;
14342;SDS011;7255;53.596;9.960;2023-05-10T08:27:37;4.30;;;3.40;;
14342;SDS011;7255;53.596;9.960;2023-05-10T08:30:03;3.78;;;3.03;;
14342;SDS011;7255;53.596;9.960;2023-05-10T08:32:31;4.30;;;2.95;;
14342;SDS011;7255;53.596;9.960;2023-05-10T08:34:58;3.97;;;3.10;;
14342;SDS011;7255;53.596;9.960;2023-05-10T08:37:25;3.45;;;3.15;;
14342;SDS011;7255;53.596;9.960;2023-05-10T08:39:51;4.25;;;3.30;;
14342;SDS011;7255;53.596;9.960;2023-05-10T08:42:19;3.87;;;3.10;;
14342;SDS011;7255;53.596;9.960;2023-05-10T08:44:51;4.35;;;3.03;;
14342;SDS011;7255;53.596;9.960;2023-05-10T08:47:19;3.62;;;3.28;;
14342;SDS011;7255;53.596;9.960;2023-05-10T08:49:47;4.00;;;3.20;;
14342;SDS011;7255;53.596;9.960;2023-05-10T08:52:15;3.30;;;2.80;;
14342;SDS011;7255;53.596;9.960;2023-05-10T08:54:43;4.10;;;3.70;;
14342;SDS011;7255;53.596;9.960;2023-05-10T08:57:09;3.80;;;3.40;;
14342;SDS011;7255;53.596;9.960;2023-05-10T08:59:36;3.90;;;3.15;;
14342;SDS011;7255;53.596;9.960;2023-05-10T09:02:04;3.60;;;3.30;;
14342;SDS011;7255;53.596;9.960;2023-05-10T09:04:31;3.35;;;3.05;;
14342;SDS011;7255;53.596;9.960;2023-05-10T09:06:57;3.42;;;3.10;;
14342;SDS011;7255;53.596;9.960;2023-05-10T09:09:25;3.83;;;3.20;;
14342;SDS011;7255;53.596;9.960;2023-05-10T09:11:53;3.87;;;3.10;;
14342;SDS011;7255;53.596;9.960;2023-05-10T09:14:20;3.67;;;3.35;;
14342;SDS011;7255;53.596;9.960;2023-05-10T09:16:46;5.85;;;3.20;;
14342;SDS011;7255;53.596;9.960;2023-05-10T09:19:13;4.72;;;3.00;;
14342;SDS011;7255;53.596;9.960;2023-05-10T09:21:39;4.12;;;3.58;;
14342;SDS011;7255;53.596;9.960;2023-05-10T09:24:06;4.60;;;3.40;;
14342;SDS011;7255;53.596;9.960;2023-05-10T09:26:35;3.95;;;3.58;;
14342;SDS011;7255;53.596;9.960;2023-05-10T09:29:11;4.72;;;3.37;;
14342;SDS011;7255;53.596;9.960;2023-05-10T09:31:45;5.80;;;3.53;;
14342;SDS011;7255;53.596;9.960;2023-05-10T09:34:15;3.40;;;3.10;;
14342;SDS011;7255;53.596;9.960;2023-05-10T09:36:52;4.50;;;3.00;;
14342;SDS011;7255;53.596;9.960;2023-05-10T09:39:19;5.47;;;3.60;;
14342;SDS011;7255;53.596;9.960;2023-05-10T09:41:47;5.37;;;3.90;;
14342;SDS011;7255;53.596;9.960;2023-05-10T09:44:16;4.90;;;3.73;;
14342;SDS011;7255;53.596;9.960;2023-05-10T09:46:48;5.62;;;3.50;;
14342;SDS011;7255;53.596;9.960;2023-05-10T09:49:15;5.37;;;3.85;;
14342;SDS011;7255;53.596;9.960;2023-05-10T09:51:42;4.65;;;3.78;;
14342;SDS011;7255;53.596;9.960;2023-05-10T09:54:08;4.50;;;4.10;;
14342;SDS011;7255;53.596;9.960;2023-05-10T09:56:35;5.18;;;4.40;;
14342;SDS011;7255;53.596;9.960;2023-05-10T09:59:05;4.78;;;4.25;;
14342;SDS011;7255;53.596;9.960;2023-05-10T10:01:32;5.22;;;4.37;;
14342;SDS011;7255;53.596;9.960;2023-05-10T10:04:01;5.60;;;5.10;;
14342;SDS011;7255;53.596;9.960;2023-05-10T10:06:29;5.78;;;4.55;;
14342;SDS011;7255;53.596;9.960;2023-05-10T10:09:00;5.40;;;4.70;;
14342;SDS011;7255;53.596;9.960;2023-05-10T10:11:27;5.20;;;4.70;;
14342;SDS011;7255;53.596;9.960;2023-05-10T10:13:54;5.10;;;4.60;;
14342;SDS011;7255;53.596;9.960;2023-05-10T10:16:22;6.75;;;4.95;;
14342;SDS011;7255;53.596;9.960;2023-05-10T10:18:49;6.03;;;4.82;;
14342;SDS011;7255;53.596;9.960;2023-05-10T10:21:15;6.20;;;4.87;;
14342;SDS011;7255;53.596;9.960;2023-05-10T10:23:42;5.40;;;4.90;;
14342;SDS011;7255;53.596;9.960;2023-05-10T10:26:09;5.93;;;5.03;;
14342;SDS011;7255;53.596;9.960;2023-05-10T10:28:38;6.85;;;5.32;;
14342;SDS011;7255;53.596;9.960;2023-05-10T10:31:14;7.00;;;5.47;;
14342;SDS011;7255;53.596;9.960;2023-05-10T10:33:55;6.00;;;5.43;;
14342;SDS011;7255;53.596;9.960;2023-05-10T10:36:25;6.37;;;5.78;;
14342;SDS011;7255;53.596;9.960;2023-05-10T10:38:59;6.50;;;5.78;;
14342;SDS011;7255;53.596;9.960;2023-05-10T10:41:30;7.43;;;5.75;;
14342;SDS011;7255;53.596;9.960;2023-05-10T10:44:22;8.23;;;6.25;;
14342;SDS011;7255;53.596;9.960;2023-05-10T10:46:59;7.15;;;5.75;;
14342;SDS011;7255;53.596;9.960;2023-05-10T10:49:30;6.37;;;5.78;;
14342;SDS011;7255;53.596;9.960;2023-05-10T10:54:39;6.07;;;5.47;;
14342;SDS011;7255;53.596;9.960;2023-05-10T10:57:10;6.30;;;5.70;;
14342;SDS011;7255;53.596;9.960;2023-05-10T10:59:40;7.72;;;5.87;;
14342;SDS011;7255;53.596;9.960;2023-05-10T11:02:08;6.87;;;6.10;;
14342;SDS011;7255;53.596;9.960;2023-05-10T11:04:42;8.03;;;6.60;;
14342;SDS011;7255;53.596;9.960;2023-05-10T11:07:17;6.40;;;5.75;;
14342;SDS011;7255;53.596;9.960;2023-05-10T11:09:44;6.45;;;5.57;;
14342;SDS011;7255;53.596;9.960;2023-05-10T11:12:12;6.60;;;5.73;;
14342;SDS011;7255;53.596;9.960;2023-05-10T11:14:39;6.37;;;5.77;;
14342;SDS011;7255;53.596;9.960;2023-05-10T11:20:07;7.60;;;6.72;;
14342;SDS011;7255;53.596;9.960;2023-05-10T11:22:48;7.43;;;6.70;;
14342;SDS011;7255;53.596;9.960;2023-05-10T11:25:16;6.70;;;6.03;;
14342;SDS011;7255;53.596;9.960;2023-05-10T11:27:42;7.18;;;6.15;;
14342;SDS011;7255;53.596;9.960;2023-05-10T11:30:09;7.82;;;6.32;;
14342;SDS011;7255;53.596;9.960;2023-05-10T11:32:36;6.97;;;6.28;;
14342;SDS011;7255;53.596;9.960;2023-05-10T11:35:07;6.50;;;5.85;;
14342;SDS011;7255;53.596;9.960;2023-05-10T11:37:34;7.40;;;6.70;;
14342;SDS011;7255;53.596;9.960;2023-05-10T11:40:01;7.33;;;6.53;;
14342;SDS011;7255;53.596;9.960;2023-05-10T11:42:28;6.65;;;5.95;;
14342;SDS011;7255;53.596;9.960;2023-05-10T11:44:55;6.33;;;5.73;;
14342;SDS011;7255;53.596;9.960;2023-05-10T11:47:21;8.63;;;5.82;;
14342;SDS011;7255;53.596;9.960;2023-05-10T11:49:48;6.93;;;6.22;;
14342;SDS011;7255;53.596;9.960;2023-05-10T11:52:16;8.38;;;6.53;;
14342;SDS011;7255;53.596;9.960;2023-05-10T11:54:45;7.93;;;6.60;;
14342;SDS011;7255;53.596;9.960;2023-05-10T11:57:17;7.50;;;6.50;;
14342;SDS011;7255;53.596;9.960;2023-05-10T11:59:44;7.40;;;6.30;;
14342;SDS011;7255;53.596;9.960;2023-05-10T12:02:10;7.37;;;6.67;;
14342;SDS011;7255;53.596;9.960;2023-05-10T12:04:38;7.82;;;7.07;;
14342;SDS011;7255;53.596;9.960;2023-05-10T12:07:05;8.57;;;6.72;;
14342;SDS011;7255;53.596;9.960;2023-05-10T12:09:32;8.80;;;7.32;;
14342;SDS011;7255;53.596;9.960;2023-05-10T12:11:59;8.25;;;7.43;;
14342;SDS011;7255;53.596;9.960;2023-05-10T12:14:25;7.93;;;7.12;;
14342;SDS011;7255;53.596;9.960;2023-05-10T12:16:53;8.02;;;7.22;;
14342;SDS011;7255;53.596;9.960;2023-05-10T12:19:19;7.97;;;7.10;;
14342;SDS011;7255;53.596;9.960;2023-05-10T12:21:46;7.23;;;6.50;;
14342;SDS011;7255;53.596;9.960;2023-05-10T12:24:13;7.62;;;6.68;;
14342;SDS011;7255;53.596;9.960;2023-05-10T12:26:42;7.45;;;6.72;;
14342;SDS011;7255;53.596;9.960;2023-05-10T12:29:11;7.10;;;6.40;;
14342;SDS011;7255;53.596;9.960;2023-05-10T12:31:50;6.93;;;6.23;;
14342;SDS011;7255;53.596;9.960;2023-05-10T12:34:24;7.53;;;6.00;;
14342;SDS011;7255;53.596;9.960;2023-05-10T12:36:51;6.43;;;5.25;;
14342;SDS011;7255;53.596;9.960;2023-05-10T12:39:18;7.45;;;5.50;;
14342;SDS011;7255;53.596;9.960;2023-05-10T12:41:46;6.03;;;4.93;;
14342;SDS011;7255;53.596;9.960;2023-05-10T12:44:12;6.72;;;5.57;;
14342;SDS011;7255;53.596;9.960;2023-05-10T12:46:38;7.47;;;5.70;;
14342;SDS011;7255;53.596;9.960;2023-05-10T12:49:05;6.07;;;5.47;;
14342;SDS011;7255;53.596;9.960;2023-05-10T12:51:31;5.90;;;5.30;;
14342;SDS011;7255;53.596;9.960;2023-05-10T12:53:57;6.28;;;5.68;;
14342;SDS011;7255;53.596;9.960;2023-05-10T12:56:24;6.55;;;5.55;;
14342;SDS011;7255;53.596;9.960;2023-05-10T12:58:51;6.30;;;5.70;;
14342;SDS011;7255;53.596;9.960;2023-05-10T13:01:17;6.30;;;5.70;;
14342;SDS011;7255;53.596;9.960;2023-05-10T13:03:45;5.72;;;5.12;;
14342;SDS011;7255;53.596;9.960;2023-05-10T13:06:11;6.18;;;4.90;;
14342;SDS011;7255;53.596;9.960;2023-05-10T13:08:38;4.43;;;4.00;;
14342;SDS011;7255;53.596;9.960;2023-05-10T13:11:05;4.72;;;4.32;;
14342;SDS011;7255;53.596;9.960;2023-05-10T13:13:31;5.50;;;4.77;;
14342;SDS011;7255;53.596;9.960;2023-05-10T13:15:59;6.22;;;5.60;;
14342;SDS011;7255;53.596;9.960;2023-05-10T13:18:25;5.57;;;4.63;;
14342;SDS011;7255;53.596;9.960;2023-05-10T13:20:52;5.93;;;4.87;;
14342;SDS011;7255;53.596;9.960;2023-05-10T13:23:19;5.55;;;4.57;;
14342;SDS011;7255;53.596;9.960;2023-05-10T13:25:45;5.33;;;4.63;;
14342;SDS011;7255;53.596;9.960;2023-05-10T13:28:12;5.12;;;4.62;;
14342;SDS011;7255;53.596;9.960;2023-05-10T13:30:38;4.80;;;4.28;;
14342;SDS011;7255;53.596;9.960;2023-05-10T13:33:06;4.50;;;4.10;;
14342;SDS011;7255;53.596;9.960;2023-05-10T13:35:32;4.57;;;4.17;;
14342;SDS011;7255;53.596;9.960;2023-05-10T13:37:58;5.10;;;4.60;;
14342;SDS011;7255;53.596;9.960;2023-05-10T13:40:25;4.87;;;4.37;;
14342;SDS011;7255;53.596;9.960;2023-05-10T13:42:51;4.97;;;4.47;;
14342;SDS011;7255;53.596;9.960;2023-05-10T13:45:17;5.30;;;4.80;;
14342;SDS011;7255;53.596;9.960;2023-05-10T13:47:44;5.00;;;4.50;;
14342;SDS011;7255;53.596;9.960;2023-05-10T13:50:12;5.12;;;4.62;;
14342;SDS011;7255;53.596;9.960;2023-05-10T13:52:38;5.28;;;4.70;;
14342;SDS011;7255;53.596;9.960;2023-05-10T13:55:05;5.03;;;4.18;;
14342;SDS011;7255;53.596;9.960;2023-05-10T13:57:31;5.37;;;4.30;;
14342;SDS011;7255;53.596;9.960;2023-05-10T13:59:59;4.57;;;4.18;;
14342;SDS011;7255;53.596;9.960;2023-05-10T14:02:25;4.78;;;4.37;;
14342;SDS011;7255;53.596;9.960;2023-05-10T14:04:52;5.55;;;5.05;;
14342;SDS011;7255;53.596;9.960;2023-05-10T14:07:20;4.87;;;4.20;;
14342;SDS011;7255;53.596;9.960;2023-05-10T14:09:46;5.20;;;4.35;;
14342;SDS011;7255;53.596;9.960;2023-05-10T14:12:13;4.57;;;4.15;;
14342;SDS011;7255;53.596;9.960;2023-05-10T14:14:39;4.68;;;3.95;;
14342;SDS011;7255;53.596;9.960;2023-05-10T14:17:06;4.40;;;4.00;;
14342;SDS011;7255;53.596;9.960;2023-05-10T14:19:32;4.40;;;4.00;;
14342;SDS011;7255;53.596;9.960;2023-05-10T14:21:59;4.75;;;4.35;;
14342;SDS011;7255;53.596;9.960;2023-05-10T14:24:26;5.72;;;4.53;;
14342;SDS011;7255;53.596;9.960;2023-05-10T14:26:53;5.03;;;4.60;;
14342;SDS011;7255;53.596;9.960;2023-05-10T14:29:19;4.95;;;4.40;;
14342;SDS011;7255;53.596;9.960;2023-05-10T14:31:45;4.32;;;3.92;;
14342;SDS011;7255;53.596;9.960;2023-05-10T14:34:12;4.60;;;4.20;;
14342;SDS011;7255;53.596;9.960;2023-05-10T14:36:38;4.50;;;4.10;;
14342;SDS011;7255;53.596;9.960;2023-05-10T14:39:05;4.80;;;4.30;;
14342;SDS011;7255;53.596;9.960;2023-05-10T14:41:32;4.25;;;3.83;;
14342;SDS011;7255;53.596;9.960;2023-05-10T14:43:59;5.10;;;4.37;;
14342;SDS011;7255;53.596;9.960;2023-05-10T14:46:25;4.60;;;4.20;;
14342;SDS011;7255;53.596;9.960;2023-05-10T14:48:52;5.70;;;4.05;;
14342;SDS011;7255;53.596;9.960;2023-05-10T14:51:18;4.87;;;4.10;;
14342;SDS011;7255;53.596;9.960;2023-05-10T14:53:46;4.93;;;4.43;;
14342;SDS011;7255;53.596;9.960;2023-05-10T14:56:13;4.90;;;4.40;;
14342;SDS011;7255;53.596;9.960;2023-05-10T14:58:40;5.32;;;4.07;;
14342;SDS011;7255;53.596;9.960;2023-05-10T15:01:07;4.80;;;3.72;;
14342;SDS011;7255;53.596;9.960;2023-05-10T15:03:33;4.75;;;4.28;;
14342;SDS011;7255;53.596;9.960;2023-05-10T15:05:59;4.53;;;4.12;;
14342;SDS011;7255;53.596;9.960;2023-05-10T15:08:26;4.35;;;3.83;;
14342;SDS011;7255;53.596;9.960;2023-05-10T15:10:52;4.45;;;3.85;;
14342;SDS011;7255;53.596;9.960;2023-05-10T15:13:20;4.60;;;4.20;;